Main page
METAR-TAF:

METAR-TAF

Airports :

Agadir–Al Massira Airport

Agadir, Morocco

latitude: 30-20N, longitude: 009-24W, elevation: 74 m

Current weather observation

The report was made 58 minutes ago, at 02:00 UTC
Wind 5 kt from the East
Temperature 21°C
Humidity 64%
Pressure 1018 hPa
Visibility: 8000 m

METAR: GMAD 030200Z 09005KT 8000 NSC 21/14 Q1018 NOSIG

Time: 03:58 (02:58 UTC)

Forecast

The report was made 3 hours and 58 minutes ago, at 23:00 UTC
Forecast valid from 03 at 00 UTC to 04 at 06 UTC
Wind 6 kt from the East
Visibility: 8000 m
Becoming
from 03 at 12 UTC to 03 at 14 UTC
Wind 10 kt from the West with gusts up to 12 kt

TAF: GMAD 022300Z 0300/0406 08006KT 8000 NSC BECMG 0312/0314 2601012KT

Weather observations and forecasts of more than 4000 airports (METAR and TAF reports).

The available stations are represented by yellow and red dots on the map.

Hover mouse over dot to see the name of the station.

Then click to see weather observations and forecasts.

To change the map : click on the green buttons with a black cross to zoom in, on the green button with a dash to zoom out, or on the green arrows for adjacent maps.


METAR-TAF: